createdAt,value
2023-05-23T00:02:51.177Z,74.94
2023-05-23T00:05:53.723Z,74.69
2023-05-23T00:08:57.396Z,74.42
2023-05-23T00:11:59.446Z,74.34
2023-05-23T00:15:01.434Z,74.13
2023-05-23T00:18:03.648Z,74.18
2023-05-23T00:21:05.570Z,74.30
2023-05-23T00:24:07.674Z,74.06
2023-05-23T00:27:09.599Z,74.14
2023-05-23T00:30:11.828Z,73.91
2023-05-23T00:33:14.631Z,74.04
2023-05-23T00:36:16.552Z,74.03
2023-05-23T00:39:21.712Z,74.20
2023-05-23T00:42:23.721Z,74.18
2023-05-23T00:45:25.618Z,74.71
2023-05-23T00:48:27.854Z,74.31
2023-05-23T00:51:29.760Z,74.32
2023-05-23T00:54:31.938Z,74.00
2023-05-23T00:57:34.909Z,73.79
2023-05-23T01:00:38.721Z,73.79
2023-05-23T01:03:40.832Z,73.41
2023-05-23T01:06:47.101Z,73.54
2023-05-23T01:09:50.287Z,74.04
2023-05-23T01:13:26.166Z,74.19
2023-05-23T01:16:31.105Z,73.79
2023-05-23T01:19:56.789Z,73.53
2023-05-23T01:23:01.173Z,73.87
2023-05-23T01:26:40.663Z,73.93
2023-05-23T01:29:47.101Z,73.78
2023-05-23T01:32:52.712Z,73.25
2023-05-23T01:35:58.401Z,73.79
2023-05-23T01:39:00.294Z,73.62
2023-05-23T01:42:03.687Z,73.72
2023-05-23T01:45:08.303Z,74.00
2023-05-23T01:48:12.723Z,74.07
2023-05-23T01:51:15.269Z,74.02
2023-05-23T01:54:19.953Z,73.67
2023-05-23T01:57:24.514Z,73.86
2023-05-23T02:00:26.809Z,73.63
2023-05-23T02:03:28.820Z,73.61
2023-05-23T02:06:31.931Z,73.67
2023-05-23T02:09:33.804Z,73.57
2023-05-23T02:12:36.088Z,73.41
2023-05-23T02:15:38.018Z,73.22
2023-05-23T02:18:39.950Z,72.91
2023-05-23T02:21:41.894Z,72.93
2023-05-23T02:24:43.852Z,73.18
2023-05-23T02:27:48.165Z,73.36
2023-05-23T02:30:50.026Z,73.47
2023-05-23T02:33:52.060Z,73.30
2023-05-23T02:36:54.563Z,73.04
2023-05-23T02:39:57.033Z,72.67
2023-05-23T02:42:59.021Z,72.64
2023-05-23T02:46:01.029Z,72.50
2023-05-23T02:49:02.941Z,72.38
2023-05-23T02:52:06.800Z,72.21
2023-05-23T02:55:09.241Z,72.29
2023-05-23T02:58:16.430Z,71.94
2023-05-23T03:01:18.829Z,71.98
2023-05-23T03:04:21.519Z,71.90
2023-05-23T03:07:28.257Z,71.92
2023-05-23T03:10:31.099Z,71.85
2023-05-23T03:13:32.995Z,71.83
2023-05-23T03:16:35.269Z,71.59
2023-05-23T03:19:37.452Z,71.44
2023-05-23T03:22:39.512Z,71.42
2023-05-23T03:25:43.170Z,71.82
2023-05-23T03:28:45.148Z,71.83
2023-05-23T03:31:47.018Z,71.56
2023-05-23T03:34:49.491Z,71.61
2023-05-23T03:37:51.374Z,71.45
2023-05-23T03:40:54.094Z,71.32
2023-05-23T03:43:56.038Z,71.27
2023-05-23T03:46:57.931Z,71.21
2023-05-23T03:49:59.919Z,71.31
2023-05-23T03:53:02.919Z,71.14
2023-05-23T03:56:05.278Z,71.14
2023-05-23T03:59:07.697Z,70.95
2023-05-23T04:02:09.741Z,70.56
2023-05-23T04:05:13.103Z,70.86
2023-05-23T04:08:15.908Z,70.17
2023-05-23T04:11:17.931Z,70.18
2023-05-23T04:14:22.580Z,70.09
2023-05-23T04:17:25.864Z,70.14
2023-05-23T04:20:28.314Z,69.82
2023-05-23T04:23:30.541Z,69.60
2023-05-23T04:26:33.156Z,69.85
2023-05-23T04:29:36.133Z,69.62
2023-05-23T04:32:38.437Z,69.67
2023-05-23T04:35:40.948Z,70.03
2023-05-23T04:38:43.807Z,70.26
2023-05-23T04:41:45.725Z,70.65
2023-05-23T04:44:56.896Z,71.21
2023-05-23T04:48:17.089Z,71.14
2023-05-23T04:51:21.779Z,71.98
2023-05-23T04:54:29.362Z,72.75
2023-05-23T04:57:34.692Z,73.26
2023-05-23T05:00:37.471Z,73.70
2023-05-23T05:03:40.070Z,75.13
2023-05-23T05:06:42.065Z,76.46
2023-05-23T05:09:45.001Z,77.45
2023-05-23T05:12:49.666Z,78.21
2023-05-23T05:15:52.943Z,78.39
2023-05-23T05:18:55.203Z,79.00
2023-05-23T05:21:57.878Z,79.68
2023-05-23T05:24:59.707Z,81.77
2023-05-23T05:28:08.517Z,80.95
2023-05-23T05:31:15.583Z,81.61
2023-05-23T05:34:18.524Z,81.95
2023-05-23T05:37:21.231Z,82.36
2023-05-23T05:40:23.405Z,83.09
2023-05-23T05:43:26.752Z,84.12
2023-05-23T05:46:29.062Z,83.52
2023-05-23T05:49:31.510Z,83.45
2023-05-23T05:52:34.770Z,83.84
2023-05-23T05:55:38.188Z,84.10
2023-05-23T05:58:40.213Z,84.16
2023-05-23T06:01:45.047Z,84.72
2023-05-23T06:04:47.493Z,84.78
2023-05-23T06:07:50.255Z,85.13
2023-05-23T06:10:52.305Z,85.25
2023-05-23T06:13:54.473Z,85.23
2023-05-23T06:16:56.415Z,85.43
2023-05-23T06:19:58.449Z,85.86
2023-05-23T06:23:01.825Z,85.93
2023-05-23T06:26:03.790Z,86.73
2023-05-23T06:29:05.756Z,86.23
2023-05-23T06:32:10.075Z,86.19
2023-05-23T06:35:12.116Z,86.31
2023-05-23T06:38:15.268Z,86.25
2023-05-23T06:41:18.887Z,86.60
2023-05-23T06:44:20.826Z,86.60
2023-05-23T06:47:27.905Z,86.82
2023-05-23T06:50:29.855Z,87.12
2023-05-23T06:53:32.079Z,86.71
2023-05-23T06:56:35.094Z,87.32
2023-05-23T06:59:37.185Z,86.61
2023-05-23T07:02:40.011Z,85.41
2023-05-23T07:05:42.462Z,85.48
2023-05-23T07:08:46.865Z,85.96
2023-05-23T07:11:50.320Z,87.04
2023-05-23T07:14:52.469Z,85.87
2023-05-23T07:17:56.089Z,85.58
2023-05-23T07:20:58.212Z,84.94
2023-05-23T07:24:00.650Z,85.37
2023-05-23T07:27:03.941Z,84.30
2023-05-23T07:30:09.822Z,83.93
2023-05-23T07:33:13.120Z,84.10
2023-05-23T07:36:15.325Z,84.02
2023-05-23T07:39:22.134Z,84.71
2023-05-23T07:42:25.453Z,83.87
2023-05-23T07:45:27.329Z,81.61
2023-05-23T07:48:29.257Z,82.15
2023-05-23T07:51:31.727Z,79.97
2023-05-23T07:54:35.207Z,79.83
2023-05-23T07:57:38.476Z,80.48
2023-05-23T08:00:41.943Z,80.14
2023-05-23T08:03:54.295Z,80.22
2023-05-23T08:07:06.057Z,79.03
2023-05-23T08:10:18.132Z,78.20
2023-05-23T08:13:20.690Z,77.64
2023-05-23T08:16:42.752Z,77.83
2023-05-23T08:19:52.624Z,78.39
2023-05-23T08:22:58.265Z,77.65
2023-05-23T08:26:00.451Z,77.59
2023-05-23T08:29:02.715Z,76.73
2023-05-23T08:32:06.402Z,75.79
2023-05-23T08:35:09.678Z,75.92
2023-05-23T08:38:13.276Z,76.71
2023-05-23T08:41:27.204Z,76.00
2023-05-23T08:44:36.086Z,75.72
2023-05-23T08:47:41.150Z,75.17
2023-05-23T08:50:47.672Z,76.01
2023-05-23T08:53:53.720Z,76.00
2023-05-23T08:56:57.782Z,75.42
2023-05-23T09:00:01.146Z,74.68
2023-05-23T09:03:04.830Z,74.18
2023-05-23T09:06:29.257Z,73.24
2023-05-23T09:09:34.053Z,73.24
2023-05-23T09:12:38.140Z,73.56
2023-05-23T09:15:56.937Z,73.42
2023-05-23T09:18:59.611Z,71.49
2023-05-23T09:22:04.310Z,71.26
2023-05-23T09:25:11.771Z,71.90
2023-05-23T09:28:16.037Z,70.87
2023-05-23T09:31:18.680Z,70.09
2023-05-23T09:34:20.617Z,69.08
2023-05-23T09:37:24.605Z,69.68
2023-05-23T09:40:33.278Z,70.53
2023-05-23T09:43:39.029Z,70.54
2023-05-23T09:46:41.489Z,69.55
2023-05-23T09:49:46.570Z,69.43
2023-05-23T09:52:48.605Z,69.52
2023-05-23T09:55:56.145Z,69.17
2023-05-23T09:58:59.396Z,69.05
2023-05-23T10:02:04.698Z,69.61
2023-05-23T10:05:09.278Z,69.94
2023-05-23T10:08:16.332Z,69.74
2023-05-23T10:11:38.252Z,70.55
2023-05-23T10:14:45.564Z,69.72
2023-05-23T10:18:05.314Z,69.47
2023-05-23T10:21:12.513Z,69.79
2023-05-23T10:24:14.739Z,70.09
2023-05-23T10:27:16.578Z,70.57
2023-05-23T10:30:18.862Z,70.11
2023-05-23T10:33:22.681Z,70.48
2023-05-23T10:36:40.957Z,70.52
2023-05-23T10:39:44.445Z,69.90
2023-05-23T10:43:03.121Z,70.11
2023-05-23T10:46:05.167Z,69.12
2023-05-23T10:49:08.793Z,69.08
2023-05-23T10:52:13.457Z,68.61
2023-05-23T10:55:17.819Z,68.67
2023-05-23T10:58:23.093Z,68.76
2023-05-23T11:01:27.167Z,68.47
2023-05-23T11:04:29.730Z,68.62
2023-05-23T11:07:32.829Z,68.82
2023-05-23T11:11:01.868Z,71.39
2023-05-23T11:14:03.843Z,72.54
2023-05-23T11:17:30.011Z,73.62
2023-05-23T11:20:32.499Z,73.65
2023-05-23T11:23:42.041Z,74.65
2023-05-23T11:27:04.135Z,75.40
2023-05-23T11:30:09.734Z,75.66
2023-05-23T11:33:14.075Z,74.75
2023-05-23T11:36:16.077Z,75.01
2023-05-23T11:39:19.501Z,74.52
2023-05-23T11:42:22.675Z,74.07
2023-05-23T11:45:25.332Z,73.28
2023-05-23T11:48:27.244Z,73.60
2023-05-23T11:51:29.221Z,73.13
2023-05-23T11:54:31.252Z,73.16
2023-05-23T11:57:33.116Z,73.48
2023-05-23T12:00:34.988Z,73.35
2023-05-23T12:03:50.510Z,74.22
2023-05-23T12:06:52.501Z,73.73
2023-05-23T12:09:57.460Z,72.57
2023-05-23T12:12:59.488Z,71.94
2023-05-23T12:16:02.700Z,70.92
2023-05-23T12:19:06.655Z,71.81
2023-05-23T12:22:08.843Z,69.93
2023-05-23T12:25:11.291Z,69.94
2023-05-23T12:28:13.915Z,71.69
2023-05-23T12:31:21.409Z,70.59
2023-05-23T12:34:23.540Z,69.88
2023-05-23T12:37:25.877Z,69.42
2023-05-23T12:40:28.567Z,68.45
2023-05-23T12:43:30.468Z,68.36
2023-05-23T12:46:32.452Z,67.90
2023-05-23T12:49:34.296Z,68.83
2023-05-23T12:52:37.317Z,69.00
2023-05-23T12:55:39.484Z,69.02
2023-05-23T12:58:41.456Z,70.09
2023-05-23T13:01:43.426Z,69.15
2023-05-23T13:04:45.377Z,68.86
2023-05-23T13:07:47.210Z,69.41
2023-05-23T13:10:49.567Z,69.16
2023-05-23T13:13:51.717Z,69.48
2023-05-23T13:16:53.632Z,69.68
2023-05-23T13:19:55.607Z,69.27
2023-05-23T13:22:58.115Z,68.97
2023-05-23T13:26:00.035Z,69.27
2023-05-23T13:29:01.965Z,68.94
2023-05-23T13:32:03.871Z,69.00
2023-05-23T13:35:06.408Z,68.67
2023-05-23T13:38:08.400Z,68.13
2023-05-23T13:41:10.449Z,67.59
2023-05-23T13:44:12.330Z,68.12
2023-05-23T13:47:15.732Z,68.68
2023-05-23T13:50:17.991Z,68.35
2023-05-23T13:53:21.532Z,67.00
2023-05-23T13:56:24.520Z,67.71
2023-05-23T13:59:27.043Z,66.11
2023-05-23T14:02:30.394Z,66.60
2023-05-23T14:05:32.387Z,66.05
2023-05-23T14:08:34.783Z,65.89
2023-05-23T14:11:36.578Z,63.33
2023-05-23T14:14:38.430Z,64.73
2023-05-23T14:17:40.451Z,65.21
2023-05-23T14:20:42.551Z,65.29
2023-05-23T14:23:44.535Z,65.62
2023-05-23T14:26:47.048Z,65.35
2023-05-23T14:29:49.878Z,65.20
2023-05-23T14:32:51.912Z,64.91
2023-05-23T14:35:53.902Z,63.65
2023-05-23T14:38:56.011Z,62.05
2023-05-23T14:41:57.845Z,61.96
2023-05-23T14:44:59.794Z,62.49
2023-05-23T14:48:02.431Z,63.43
2023-05-23T14:51:04.654Z,64.35
2023-05-23T14:54:06.742Z,64.77
2023-05-23T14:57:09.418Z,65.30
2023-05-23T15:00:11.801Z,66.45
2023-05-23T15:03:14.747Z,66.97
2023-05-23T15:06:16.671Z,67.49
2023-05-23T15:09:19.175Z,67.89
2023-05-23T15:12:21.072Z,68.29
2023-05-23T15:15:23.746Z,68.60
2023-05-23T15:18:38.883Z,68.36
2023-05-23T15:21:50.522Z,68.53
2023-05-23T15:24:53.428Z,68.99
2023-05-23T15:27:56.367Z,69.81
2023-05-23T15:30:59.134Z,70.22
2023-05-23T15:34:01.062Z,70.43
2023-05-23T15:37:02.871Z,71.22
2023-05-23T15:40:05.197Z,71.51
2023-05-23T15:43:06.914Z,72.41
2023-05-23T15:46:08.856Z,71.54
2023-05-23T15:49:21.592Z,71.41
2023-05-23T15:52:28.243Z,71.46
2023-05-23T15:55:31.068Z,71.59
2023-05-23T15:58:32.992Z,71.66
2023-05-23T16:01:35.216Z,71.08
2023-05-23T16:04:37.025Z,72.18
2023-05-23T16:07:38.972Z,71.22
2023-05-23T16:10:40.878Z,71.05
2023-05-23T16:13:42.694Z,71.51
2023-05-23T16:16:44.530Z,71.76
2023-05-23T16:19:46.454Z,72.20
2023-05-23T16:22:48.297Z,72.25
2023-05-23T16:25:50.151Z,72.64
2023-05-23T16:28:52.167Z,72.64
2023-05-23T16:31:54.034Z,72.93
2023-05-23T16:34:55.905Z,72.71
2023-05-23T16:37:57.686Z,72.55
2023-05-23T16:40:59.529Z,72.20
2023-05-23T16:44:01.362Z,72.50
2023-05-23T16:47:03.141Z,72.28
2023-05-23T16:50:05.532Z,72.28
2023-05-23T16:53:07.273Z,72.93
2023-05-23T16:56:09.200Z,72.79
2023-05-23T16:59:11.080Z,73.21
2023-05-23T17:02:14.703Z,73.55
2023-05-23T17:05:16.541Z,73.65
2023-05-23T17:08:18.386Z,74.12
2023-05-23T17:11:20.321Z,74.13
2023-05-23T17:14:22.143Z,73.98
2023-05-23T17:17:24.030Z,74.32
2023-05-23T17:20:27.110Z,74.56
2023-05-23T17:23:29.148Z,74.71
2023-05-23T17:26:31.064Z,75.09
2023-05-23T17:29:32.904Z,75.18
2023-05-23T17:32:35.475Z,75.21
2023-05-23T17:35:37.474Z,75.80
2023-05-23T17:38:39.362Z,76.15
2023-05-23T17:41:41.665Z,76.07
2023-05-23T17:44:44.575Z,76.23
2023-05-23T17:47:47.212Z,76.63
2023-05-23T17:50:49.233Z,77.11
2023-05-23T17:53:53.709Z,77.00
2023-05-23T17:56:55.752Z,77.08
2023-05-23T17:59:58.180Z,77.26
2023-05-23T18:03:00.985Z,78.00
2023-05-23T18:06:02.841Z,77.81
2023-05-23T18:09:05.207Z,77.67
2023-05-23T18:12:07.118Z,77.90
2023-05-23T18:15:09.818Z,77.95
2023-05-23T18:18:12.180Z,78.15
2023-05-23T18:21:14.028Z,78.58
2023-05-23T18:24:16.570Z,78.58
2023-05-23T18:27:18.346Z,78.40
2023-05-23T18:30:20.195Z,78.80
2023-05-23T18:33:22.263Z,78.88
2023-05-23T18:36:24.172Z,78.57
2023-05-23T18:39:26.394Z,79.01
2023-05-23T18:42:29.675Z,79.01
2023-05-23T18:45:31.567Z,78.85
2023-05-23T18:48:35.659Z,78.72
2023-05-23T18:51:38.323Z,79.04
2023-05-23T18:54:40.191Z,79.37
2023-05-23T18:57:42.065Z,79.72
2023-05-23T19:00:44.740Z,80.59
2023-05-23T19:03:46.784Z,80.27
2023-05-23T19:06:49.597Z,80.25
2023-05-23T19:09:51.473Z,80.98
2023-05-23T19:12:53.288Z,80.81
2023-05-23T19:15:55.315Z,80.61
2023-05-23T19:18:57.831Z,80.55
2023-05-23T19:22:00.789Z,80.94
2023-05-23T19:25:02.636Z,80.49
2023-05-23T19:28:04.467Z,80.75
2023-05-23T19:31:07.758Z,81.19
2023-05-23T19:34:09.634Z,81.21
2023-05-23T19:37:11.480Z,81.40
2023-05-23T19:40:13.576Z,82.56
2023-05-23T19:43:15.796Z,83.33
2023-05-23T19:46:17.715Z,82.86
2023-05-23T19:49:20.928Z,82.82
2023-05-23T19:52:22.759Z,83.26
2023-05-23T19:55:24.718Z,83.83
2023-05-23T19:58:26.588Z,84.13
2023-05-23T20:01:30.804Z,84.17
2023-05-23T20:04:32.681Z,84.43
2023-05-23T20:07:36.459Z,84.51
2023-05-23T20:10:38.389Z,84.25
2023-05-23T20:13:40.536Z,83.97
2023-05-23T20:16:42.491Z,83.97
2023-05-23T20:19:44.407Z,83.79
2023-05-23T20:22:46.235Z,84.02
2023-05-23T20:25:48.031Z,84.23
2023-05-23T20:28:50.397Z,84.95
2023-05-23T20:31:52.287Z,85.08
2023-05-23T20:34:54.130Z,84.99
2023-05-23T20:37:55.972Z,84.98
2023-05-23T20:41:05.529Z,85.48
2023-05-23T20:44:12.380Z,85.56
2023-05-23T20:47:15.503Z,85.90
2023-05-23T20:50:19.143Z,86.16
2023-05-23T20:53:21.121Z,86.18
2023-05-23T20:56:24.566Z,86.31
2023-05-23T20:59:26.491Z,86.66
2023-05-23T21:02:28.468Z,86.66
2023-05-23T21:05:30.419Z,86.71
2023-05-23T21:08:34.471Z,86.75
2023-05-23T21:11:36.751Z,86.87
2023-05-23T21:14:38.550Z,86.62
2023-05-23T21:17:40.476Z,86.51
2023-05-23T21:20:42.628Z,86.56
2023-05-23T21:23:44.793Z,86.59
2023-05-23T21:26:46.603Z,86.81
2023-05-23T21:29:48.567Z,86.37
2023-05-23T21:32:50.725Z,86.14
2023-05-23T21:35:52.712Z,85.70
2023-05-23T21:38:54.488Z,85.66
2023-05-23T21:41:56.324Z,85.25
2023-05-23T21:44:58.158Z,84.98
2023-05-23T21:48:00.011Z,85.09
2023-05-23T21:51:01.833Z,84.77
2023-05-23T21:54:03.832Z,84.39
2023-05-23T21:57:05.770Z,84.85
2023-05-23T22:00:12.406Z,85.58
2023-05-23T22:03:17.479Z,85.25
2023-05-23T22:06:19.451Z,84.88
2023-05-23T22:09:21.224Z,85.09
2023-05-23T22:12:23.158Z,86.14
2023-05-23T22:15:24.954Z,86.78
2023-05-23T22:18:30.593Z,86.86
2023-05-23T22:21:39.398Z,87.45
2023-05-23T22:24:41.176Z,87.96
2023-05-23T22:27:43.031Z,88.87
2023-05-23T22:30:44.901Z,88.81
2023-05-23T22:33:46.889Z,88.78
2023-05-23T22:36:48.660Z,89.74
2023-05-23T22:39:50.414Z,89.88
2023-05-23T22:42:52.162Z,90.08
2023-05-23T22:45:53.938Z,89.93
2023-05-23T22:48:55.753Z,90.12
2023-05-23T22:51:57.852Z,90.01
2023-05-23T22:54:59.771Z,90.07
2023-05-23T22:58:01.982Z,90.26
2023-05-23T23:01:03.875Z,89.98
2023-05-23T23:04:05.722Z,90.27
2023-05-23T23:07:08.804Z,90.22
2023-05-23T23:10:10.688Z,90.22
2023-05-23T23:13:14.114Z,90.44
2023-05-23T23:16:19.374Z,90.18
2023-05-23T23:19:21.893Z,90.30
2023-05-23T23:22:24.718Z,90.38
2023-05-23T23:25:26.937Z,90.45
2023-05-23T23:28:28.771Z,90.43
2023-05-23T23:31:30.810Z,90.44
2023-05-23T23:34:32.753Z,90.42
2023-05-23T23:37:34.758Z,90.40
2023-05-23T23:40:36.672Z,90.04
2023-05-23T23:43:38.473Z,89.85
2023-05-23T23:46:40.305Z,89.45
2023-05-23T23:49:42.333Z,89.39
2023-05-23T23:52:44.276Z,89.54
2023-05-23T23:55:46.352Z,89.79
2023-05-23T23:58:48.253Z,89.98
